createdAt,value
2018-09-05T00:00:11.844Z,70.22
2018-09-05T00:02:39.945Z,71.03
2018-09-05T00:05:08.066Z,70.76
2018-09-05T00:07:36.320Z,70.89
2018-09-05T00:10:04.440Z,70.98
2018-09-05T00:12:32.494Z,70.47
2018-09-05T00:15:00.612Z,71.14
2018-09-05T00:17:28.659Z,70.66
2018-09-05T00:19:56.863Z,71.09
2018-09-05T00:22:24.901Z,71.29
2018-09-05T00:24:52.960Z,70.99
2018-09-05T00:27:21.023Z,70.56
2018-09-05T00:29:49.067Z,70.84
2018-09-05T00:32:17.132Z,70.61
2018-09-05T00:34:45.223Z,70.67
2018-09-05T00:37:13.282Z,71.32
2018-09-05T00:39:41.681Z,71.01
2018-09-05T00:42:09.715Z,70.90
2018-09-05T00:44:37.815Z,71.59
2018-09-05T00:47:05.864Z,70.69
2018-09-05T00:49:33.917Z,70.40
2018-09-05T00:52:01.960Z,70.80
2018-09-05T00:54:29.998Z,70.99
2018-09-05T00:56:58.196Z,70.63
2018-09-05T00:59:26.252Z,71.49
2018-09-05T01:01:54.286Z,71.10
2018-09-05T01:04:22.360Z,70.76
2018-09-05T01:06:50.381Z,70.54
2018-09-05T01:09:18.438Z,70.45
2018-09-05T01:11:46.476Z,70.75
2018-09-05T01:14:14.503Z,70.66
2018-09-05T01:16:42.720Z,71.23
2018-09-05T01:19:10.757Z,71.23
2018-09-05T01:21:38.814Z,71.52
2018-09-05T01:24:07.207Z,71.47
2018-09-05T01:26:35.227Z,71.07
2018-09-05T01:29:03.251Z,71.02
2018-09-05T01:31:31.289Z,70.81
2018-09-05T01:33:59.325Z,71.50
2018-09-05T01:36:27.355Z,70.83
2018-09-05T01:38:55.388Z,71.66
2018-09-05T01:41:23.576Z,71.08
2018-09-05T01:43:51.621Z,71.94
2018-09-05T01:46:19.642Z,71.72
2018-09-05T01:48:47.673Z,71.01
2018-09-05T01:51:15.709Z,71.54
2018-09-05T01:53:43.748Z,71.39
2018-09-05T01:56:11.789Z,71.37
2018-09-05T01:58:39.812Z,72.02
2018-09-05T02:01:07.891Z,71.33
2018-09-05T02:03:35.948Z,71.97
2018-09-05T02:06:04.719Z,71.37
2018-09-05T02:08:32.810Z,71.36
2018-09-05T02:11:00.784Z,71.94
2018-09-05T02:13:28.820Z,71.96
2018-09-05T02:15:56.865Z,71.90
2018-09-05T02:18:24.900Z,71.81
2018-09-05T02:20:52.943Z,72.28
2018-09-05T02:23:20.969Z,71.90
2018-09-05T02:25:49.009Z,72.47
2018-09-05T02:28:17.037Z,71.99
2018-09-05T02:30:45.069Z,71.43
2018-09-05T02:33:13.106Z,71.39
2018-09-05T02:35:41.144Z,71.46
2018-09-05T02:38:09.164Z,71.53
2018-09-05T02:40:37.218Z,72.51
2018-09-05T02:43:05.248Z,72.40
2018-09-05T02:45:33.277Z,72.04
2018-09-05T02:48:01.310Z,72.03
2018-09-05T02:50:29.355Z,71.99
2018-09-05T02:52:57.416Z,71.88
2018-09-05T02:55:30.794Z,72.42
2018-09-05T02:57:58.847Z,72.81
2018-09-05T03:00:26.892Z,72.55
2018-09-05T03:02:54.971Z,71.95
2018-09-05T03:05:23.035Z,72.38
2018-09-05T03:07:51.067Z,72.37
2018-09-05T03:10:19.110Z,71.74
2018-09-05T03:12:47.168Z,71.76
2018-09-05T03:15:15.197Z,71.75
2018-09-05T03:17:43.248Z,72.68
2018-09-05T03:20:11.331Z,72.82
2018-09-05T03:22:39.371Z,71.86
2018-09-05T03:27:46.853Z,71.96
2018-09-05T03:30:14.895Z,72.37
2018-09-05T03:32:43.079Z,72.35
2018-09-05T03:35:10.996Z,72.09
2018-09-05T03:37:39.049Z,71.57
2018-09-05T03:40:07.104Z,71.50
2018-09-05T03:42:35.181Z,72.07
2018-09-05T03:45:03.231Z,71.39
2018-09-05T03:47:31.263Z,72.29
2018-09-05T03:49:59.312Z,71.53
2018-09-05T03:52:27.384Z,71.88
2018-09-05T03:54:55.437Z,72.35
2018-09-05T03:57:23.493Z,71.92
2018-09-05T03:59:51.532Z,72.06
2018-09-05T04:02:19.561Z,71.26
2018-09-05T04:04:47.608Z,71.60
2018-09-05T04:07:15.638Z,72.17
2018-09-05T04:09:43.669Z,71.76
2018-09-05T04:12:11.771Z,71.98
2018-09-05T04:14:39.764Z,72.07
2018-09-05T04:17:08.031Z,72.65
2018-09-05T04:19:36.063Z,72.21
2018-09-05T04:22:04.848Z,71.95
2018-09-05T04:24:32.972Z,71.89
2018-09-05T04:27:01.020Z,72.02
2018-09-05T04:29:29.167Z,72.80
2018-09-05T04:31:57.100Z,72.09
2018-09-05T04:34:25.120Z,72.05
2018-09-05T04:36:53.161Z,72.54
2018-09-05T04:39:21.200Z,71.63
2018-09-05T04:41:49.255Z,72.03
2018-09-05T04:44:17.288Z,71.63
2018-09-05T04:46:45.322Z,71.98
2018-09-05T04:49:13.484Z,71.58
2018-09-05T04:51:41.647Z,71.84
2018-09-05T04:54:09.672Z,72.07
2018-09-05T04:56:37.699Z,72.23
2018-09-05T04:59:06.792Z,72.65
2018-09-05T05:01:35.037Z,72.25
2018-09-05T05:04:03.023Z,72.00
2018-09-05T05:06:31.081Z,72.44
2018-09-05T05:08:59.135Z,71.78
2018-09-05T05:11:27.158Z,72.22
2018-09-05T05:13:55.378Z,72.58
2018-09-05T05:16:23.368Z,71.84
2018-09-05T05:18:51.671Z,71.91
2018-09-05T05:21:19.736Z,71.68
2018-09-05T05:23:47.756Z,72.39
2018-09-05T05:26:15.865Z,72.50
2018-09-05T05:28:44.215Z,72.73
2018-09-05T05:31:12.315Z,72.58
2018-09-05T05:33:40.344Z,72.58
2018-09-05T05:36:08.528Z,72.78
2018-09-05T05:38:36.558Z,72.80
2018-09-05T05:41:04.800Z,72.78
2018-09-05T05:43:33.029Z,72.46
2018-09-05T05:46:01.064Z,72.09
2018-09-05T05:48:29.090Z,72.98
2018-09-05T05:50:57.299Z,72.87
2018-09-05T05:53:25.318Z,73.03
2018-09-05T05:55:53.337Z,72.33
2018-09-05T05:58:21.376Z,72.32
2018-09-05T06:00:49.546Z,72.21
2018-09-05T06:03:17.484Z,72.71
2018-09-05T06:05:45.524Z,71.83
2018-09-05T06:08:25.535Z,71.98
2018-09-05T06:10:53.584Z,72.44
2018-09-05T06:13:21.624Z,72.78
2018-09-05T06:15:49.657Z,72.67
2018-09-05T06:18:17.950Z,72.81
2018-09-05T06:20:45.972Z,72.38
2018-09-05T06:23:14.016Z,72.74
2018-09-05T06:25:42.054Z,72.91
2018-09-05T06:28:10.074Z,72.39
2018-09-05T06:30:38.412Z,72.15
2018-09-05T06:33:06.299Z,72.16
2018-09-05T06:35:34.441Z,72.29
2018-09-05T06:38:02.478Z,72.62
2018-09-05T06:40:30.520Z,72.59
2018-09-05T06:42:58.597Z,71.72
2018-09-05T06:45:26.696Z,71.22
2018-09-05T06:47:54.656Z,71.98
2018-09-05T06:50:22.718Z,71.64
2018-09-05T06:52:50.938Z,71.98
2018-09-05T06:55:18.972Z,72.21
2018-09-05T06:57:47.025Z,71.93
2018-09-05T07:00:17.334Z,71.81
2018-09-05T07:02:45.366Z,71.47
2018-09-05T07:05:13.409Z,71.78
2018-09-05T07:07:41.445Z,71.39
2018-09-05T07:10:09.515Z,71.36
2018-09-05T07:12:37.529Z,70.71
2018-09-05T07:15:06.159Z,71.35
2018-09-05T07:17:34.245Z,70.11
2018-09-05T07:20:02.253Z,70.70
2018-09-05T07:22:30.289Z,69.82
2018-09-05T07:24:58.694Z,69.11
2018-09-05T07:27:26.832Z,69.33
2018-09-05T07:29:54.871Z,68.54
2018-09-05T07:32:22.889Z,67.44
2018-09-05T07:34:50.932Z,67.28
2018-09-05T07:37:19.121Z,66.47
2018-09-05T07:39:47.149Z,65.45
2018-09-05T07:42:15.196Z,65.51
2018-09-05T07:44:43.376Z,63.95
2018-09-05T07:47:11.404Z,64.65
2018-09-05T07:49:39.428Z,63.03
2018-09-05T07:52:07.507Z,62.69
2018-09-05T07:54:35.518Z,62.40
2018-09-05T07:57:03.543Z,62.08
2018-09-05T07:59:31.599Z,60.91
2018-09-05T08:01:59.628Z,61.14
2018-09-05T08:04:27.670Z,60.28
2018-09-05T08:09:22.834Z,59.52
2018-09-05T08:11:50.928Z,59.07
2018-09-05T08:14:18.908Z,57.49
2018-09-05T08:16:47.207Z,56.13
2018-09-05T08:19:15.240Z,56.16
2018-09-05T08:21:43.295Z,56.00
2018-09-05T08:24:11.511Z,56.16
2018-09-05T08:26:39.540Z,54.85
2018-09-05T08:29:07.624Z,56.08
2018-09-05T08:31:35.632Z,54.81
2018-09-05T08:34:03.657Z,55.15
2018-09-05T08:36:31.877Z,53.70
2018-09-05T08:38:59.847Z,53.20
2018-09-05T08:41:27.840Z,52.56
2018-09-05T08:43:55.871Z,52.68
2018-09-05T08:46:24.084Z,51.67
2018-09-05T08:48:52.100Z,52.35
2018-09-05T08:51:20.312Z,52.62
2018-09-05T08:53:49.114Z,52.24
2018-09-05T08:56:17.235Z,51.88
2018-09-05T08:58:45.545Z,50.98
2018-09-05T09:01:13.525Z,49.79
2018-09-05T09:03:41.819Z,50.33
2018-09-05T09:06:09.892Z,50.00
2018-09-05T09:08:37.906Z,50.28
2018-09-05T09:11:05.952Z,49.61
2018-09-05T09:13:33.998Z,49.07
2018-09-05T09:16:02.031Z,49.50
2018-09-05T09:18:30.064Z,49.29
2018-09-05T09:20:58.104Z,48.53
2018-09-05T09:23:26.134Z,47.97
2018-09-05T09:25:54.165Z,47.57
2018-09-05T09:28:22.391Z,47.96
2018-09-05T09:30:50.396Z,47.83
2018-09-05T09:33:18.432Z,47.13
2018-09-05T09:35:46.636Z,46.93
2018-09-05T09:38:14.676Z,47.22
2018-09-05T09:40:42.716Z,46.79
2018-09-05T09:43:10.756Z,46.22
2018-09-05T09:45:38.813Z,44.64
2018-09-05T09:48:07.024Z,45.51
2018-09-05T09:50:35.061Z,44.87
2018-09-05T09:53:03.086Z,45.08
2018-09-05T09:55:31.144Z,44.09
2018-09-05T09:57:59.164Z,43.83
2018-09-05T10:00:32.520Z,43.82
2018-09-05T10:03:06.072Z,43.43
2018-09-05T10:05:39.483Z,42.88
2018-09-05T10:08:10.224Z,43.66
2018-09-05T10:10:43.679Z,42.89
2018-09-05T10:13:12.919Z,43.94
2018-09-05T10:15:46.172Z,43.52
2018-09-05T10:18:19.506Z,43.03
2018-09-05T10:20:54.283Z,41.97
2018-09-05T10:23:22.305Z,43.27
2018-09-05T10:25:50.364Z,41.00
2018-09-05T10:28:18.552Z,42.05
2018-09-05T10:30:46.719Z,42.29
2018-09-05T10:33:14.747Z,42.20
2018-09-05T10:35:42.952Z,40.66
2018-09-05T10:38:10.973Z,40.44
2018-09-05T10:40:39.006Z,40.40
2018-09-05T10:43:07.061Z,40.42
2018-09-05T10:45:35.084Z,39.01
2018-09-05T10:48:03.163Z,40.43
2018-09-05T10:50:31.240Z,39.60
2018-09-05T10:52:59.366Z,40.96
2018-09-05T10:55:27.399Z,39.27
2018-09-05T10:57:55.436Z,40.15
2018-09-05T11:00:23.487Z,39.06
2018-09-05T11:02:51.528Z,40.31
2018-09-05T11:05:25.923Z,40.78
2018-09-05T11:07:54.124Z,37.90
2018-09-05T11:10:22.195Z,38.30
2018-09-05T11:12:50.200Z,38.75
2018-09-05T11:15:18.252Z,38.74
2018-09-05T11:17:46.284Z,38.12
2018-09-05T11:20:14.433Z,38.45
2018-09-05T11:22:42.491Z,39.11
2018-09-05T11:25:10.527Z,38.73
2018-09-05T11:27:38.611Z,37.87
2018-09-05T11:30:06.679Z,37.03
2018-09-05T11:32:35.266Z,37.72
2018-09-05T11:35:03.305Z,37.14
2018-09-05T11:37:32.275Z,37.13
2018-09-05T11:40:00.345Z,36.71
2018-09-05T11:42:28.380Z,37.92
2018-09-05T11:44:56.421Z,37.45
2018-09-05T11:47:24.459Z,38.30
2018-09-05T11:49:52.516Z,37.10
2018-09-05T11:52:21.004Z,37.25
2018-09-05T11:54:49.047Z,37.62
2018-09-05T11:57:17.181Z,36.10
2018-09-05T11:59:47.362Z,36.77
2018-09-05T12:02:15.836Z,35.47
2018-09-05T12:04:44.051Z,35.86
2018-09-05T12:07:12.528Z,35.63
2018-09-05T12:09:40.568Z,36.61
2018-09-05T12:12:08.653Z,37.02
2018-09-05T12:14:36.643Z,36.78
2018-09-05T12:17:50.363Z,36.08
2018-09-05T12:20:18.404Z,36.56
2018-09-05T12:22:46.472Z,36.59
2018-09-05T12:25:14.554Z,34.50
2018-09-05T12:27:42.739Z,34.90
2018-09-05T12:30:10.755Z,34.47
2018-09-05T12:32:38.788Z,35.21
2018-09-05T12:35:07.197Z,35.72
2018-09-05T12:37:35.230Z,34.26
2018-09-05T12:40:03.277Z,34.04
2018-09-05T12:42:31.346Z,33.40
2018-09-05T12:44:59.417Z,34.98
2018-09-05T12:47:27.465Z,35.09
2018-09-05T12:49:55.957Z,35.27
2018-09-05T12:52:24.013Z,35.81
2018-09-05T12:54:52.036Z,36.21
2018-09-05T12:57:20.076Z,36.32
2018-09-05T12:59:48.307Z,35.32
2018-09-05T13:02:16.364Z,35.21
2018-09-05T13:04:44.391Z,34.73
2018-09-05T13:07:12.459Z,34.88
2018-09-05T13:09:40.679Z,35.57
2018-09-05T13:12:08.708Z,35.19
2018-09-05T13:14:36.917Z,36.12
2018-09-05T13:17:05.197Z,34.56
2018-09-05T13:19:33.233Z,36.02
2018-09-05T13:22:01.265Z,34.13
2018-09-05T13:24:29.290Z,34.88
2018-09-05T13:26:57.420Z,34.38
2018-09-05T13:29:25.419Z,34.78
2018-09-05T13:31:53.606Z,34.81
2018-09-05T13:34:21.832Z,33.99
2018-09-05T13:36:49.938Z,34.56
2018-09-05T13:39:17.968Z,34.41
2018-09-05T13:41:46.084Z,34.68
2018-09-05T13:44:14.139Z,34.34
2018-09-05T13:46:42.344Z,33.96
2018-09-05T13:49:10.395Z,33.39
2018-09-05T13:51:38.638Z,34.96
2018-09-05T13:54:07.511Z,34.97
2018-09-05T13:56:35.573Z,34.13
2018-09-05T13:59:05.032Z,33.20
2018-09-05T14:01:33.076Z,33.97
2018-09-05T14:04:01.120Z,31.83
2018-09-05T14:06:29.164Z,32.51
2018-09-05T14:08:57.254Z,33.28
2018-09-05T14:11:25.335Z,33.19
2018-09-05T14:13:53.428Z,33.25
2018-09-05T14:16:21.472Z,31.90
2018-09-05T14:18:49.688Z,33.41
2018-09-05T14:21:17.712Z,33.25
2018-09-05T14:23:46.308Z,33.50
2018-09-05T14:26:14.342Z,34.29
2018-09-05T14:28:42.392Z,32.85
2018-09-05T14:31:10.428Z,32.67
2018-09-05T14:33:38.522Z,33.30
2018-09-05T14:36:06.558Z,33.80
2018-09-05T14:38:34.927Z,35.75
2018-09-05T14:41:02.964Z,33.27
2018-09-05T14:43:31.181Z,33.03
2018-09-05T14:45:59.210Z,34.59
2018-09-05T14:48:27.275Z,33.13
2018-09-05T14:50:55.322Z,34.40
2018-09-05T14:53:23.487Z,35.51
2018-09-05T14:55:51.502Z,34.39
2018-09-05T14:58:19.560Z,34.39
2018-09-05T15:00:47.748Z,35.02
2018-09-05T15:03:15.797Z,36.17
2018-09-05T15:05:43.989Z,35.16
2018-09-05T15:08:14.248Z,36.12
2018-09-05T15:10:42.892Z,36.60
2018-09-05T15:13:10.937Z,35.78
2018-09-05T15:15:39.025Z,35.47
2018-09-05T15:18:07.228Z,37.11
2018-09-05T15:20:35.262Z,36.59
2018-09-05T15:23:03.304Z,36.71
2018-09-05T15:25:31.498Z,36.61
2018-09-05T15:27:59.752Z,37.81
2018-09-05T15:30:27.805Z,37.82
2018-09-05T15:32:56.512Z,36.15
2018-09-05T15:35:24.548Z,35.90
2018-09-05T15:37:52.586Z,36.66
2018-09-05T15:40:20.622Z,36.10
2018-09-05T15:42:49.088Z,34.83
2018-09-05T15:45:17.125Z,36.03
2018-09-05T15:47:45.197Z,36.40
2018-09-05T15:50:13.253Z,37.01
2018-09-05T15:52:41.357Z,36.63
2018-09-05T15:55:09.688Z,37.33
2018-09-05T15:57:37.731Z,38.21
2018-09-05T16:02:54.092Z,37.88
2018-09-05T16:05:22.110Z,37.69
2018-09-05T16:07:50.349Z,36.86
2018-09-05T16:10:18.411Z,35.93
2018-09-05T16:12:46.378Z,34.56
2018-09-05T16:15:14.418Z,35.01
2018-09-05T16:17:42.425Z,35.28
2018-09-05T16:20:10.704Z,35.95
2018-09-05T16:22:38.714Z,34.91
2018-09-05T16:25:06.864Z,36.42
2018-09-05T16:27:34.920Z,36.24
2018-09-05T16:30:03.145Z,37.54
2018-09-05T16:32:31.353Z,36.96
2018-09-05T16:35:03.341Z,36.62
2018-09-05T16:37:31.408Z,37.19
2018-09-05T16:39:59.409Z,38.13
2018-09-05T16:42:27.465Z,37.12
2018-09-05T16:44:56.664Z,37.56
2018-09-05T16:47:24.765Z,38.24
2018-09-05T16:49:52.996Z,37.98
2018-09-05T16:52:25.224Z,38.57
2018-09-05T16:54:53.389Z,38.45
2018-09-05T16:57:21.416Z,38.39
2018-09-05T16:59:49.695Z,37.77
2018-09-05T17:02:17.714Z,38.17
2018-09-05T17:04:45.737Z,36.63
2018-09-05T17:07:14.189Z,38.30
2018-09-05T17:09:42.219Z,37.03
2018-09-05T17:12:10.398Z,38.61
2018-09-05T17:14:38.412Z,39.02
2018-09-05T17:17:06.465Z,38.22
2018-09-05T17:19:34.486Z,39.87
2018-09-05T17:22:02.980Z,39.79
2018-09-05T17:24:30.999Z,40.16
2018-09-05T17:26:59.868Z,40.15
2018-09-05T17:29:27.896Z,39.94
2018-09-05T17:31:55.924Z,40.46
2018-09-05T17:34:23.936Z,40.32
2018-09-05T17:36:51.959Z,40.60
2018-09-05T17:39:20.034Z,40.63
2018-09-05T17:41:48.114Z,41.46
2018-09-05T17:44:16.173Z,41.57
2018-09-05T17:46:44.184Z,41.48
2018-09-05T17:49:12.208Z,41.76
2018-09-05T17:51:40.216Z,41.85
2018-09-05T17:54:08.402Z,40.92
2018-09-05T17:56:36.841Z,41.83
2018-09-05T17:59:05.869Z,42.25
2018-09-05T18:01:34.082Z,41.72
2018-09-05T18:04:02.323Z,42.49
2018-09-05T18:06:30.364Z,42.61
2018-09-05T18:08:58.384Z,41.58
2018-09-05T18:11:27.417Z,41.91
2018-09-05T18:13:55.450Z,42.26
2018-09-05T18:16:23.469Z,42.33
2018-09-05T18:18:51.490Z,43.14
2018-09-05T18:21:19.717Z,42.74
2018-09-05T18:23:47.798Z,43.26
2018-09-05T18:26:15.827Z,44.16
2018-09-05T18:28:43.895Z,44.42
2018-09-05T18:31:12.031Z,44.32
2018-09-05T18:33:40.063Z,44.34
2018-09-05T18:36:08.334Z,44.69
2018-09-05T18:38:36.354Z,45.52
2018-09-05T18:41:04.933Z,46.39
2018-09-05T18:43:32.935Z,45.57
2018-09-05T18:46:00.967Z,45.58
2018-09-05T18:48:29.097Z,46.08
2018-09-05T18:50:57.109Z,45.59
2018-09-05T18:53:25.164Z,46.25
2018-09-05T18:55:53.354Z,46.99
2018-09-05T18:58:21.697Z,47.51
2018-09-05T19:00:49.726Z,46.63
2018-09-05T19:03:17.751Z,47.02
2018-09-05T19:05:45.904Z,48.28
2018-09-05T19:08:13.993Z,47.55
2018-09-05T19:10:42.096Z,48.54
2018-09-05T19:13:10.129Z,47.98
2018-09-05T19:15:38.164Z,48.67
2018-09-05T19:18:06.188Z,49.28
2018-09-05T19:20:34.354Z,48.59
2018-09-05T19:23:03.011Z,48.83
2018-09-05T19:25:31.044Z,47.93
2018-09-05T19:27:59.080Z,48.94
2018-09-05T19:30:27.134Z,49.57
2018-09-05T19:32:55.180Z,49.03
2018-09-05T19:35:24.189Z,48.76
2018-09-05T19:37:52.373Z,50.21
2018-09-05T19:40:20.393Z,49.62
2018-09-05T19:42:48.417Z,50.51
2018-09-05T19:45:17.497Z,49.85
2018-09-05T19:47:45.517Z,50.34
2018-09-05T19:50:14.326Z,50.56
2018-09-05T19:52:42.280Z,50.70
2018-09-05T19:55:10.349Z,50.78
2018-09-05T19:57:38.390Z,50.62
2018-09-05T20:00:06.393Z,50.36
2018-09-05T20:02:34.608Z,51.41
2018-09-05T20:07:30.677Z,51.39
2018-09-05T20:09:59.573Z,51.02
2018-09-05T20:12:27.585Z,51.85
2018-09-05T20:14:55.880Z,52.13
2018-09-05T20:17:23.902Z,52.24
2018-09-05T20:19:51.912Z,51.67
2018-09-05T20:22:19.929Z,52.52
2018-09-05T20:24:47.956Z,51.67
2018-09-05T20:27:16.223Z,51.77
2018-09-05T20:29:44.248Z,51.83
2018-09-05T20:32:12.263Z,51.99
2018-09-05T20:34:40.288Z,52.27
2018-09-05T20:37:08.336Z,52.17
2018-09-05T20:39:36.344Z,52.16
2018-09-05T20:42:04.971Z,52.74
2018-09-05T20:44:32.993Z,52.29
2018-09-05T20:47:01.011Z,52.89
2018-09-05T20:49:29.200Z,53.15
2018-09-05T20:51:57.216Z,52.92
2018-09-05T20:54:25.251Z,52.59
2018-09-05T20:56:53.870Z,52.96
2018-09-05T20:59:21.888Z,53.69
2018-09-05T21:01:49.904Z,53.52
2018-09-05T21:04:18.401Z,53.35
2018-09-05T21:06:46.422Z,52.30
2018-09-05T21:09:14.453Z,53.76
2018-09-05T21:11:42.608Z,54.00
2018-09-05T21:14:10.769Z,53.19
2018-09-05T21:16:38.812Z,53.89
2018-09-05T21:19:07.021Z,53.78
2018-09-05T21:21:35.207Z,53.43
2018-09-05T21:24:03.224Z,53.64
2018-09-05T21:26:31.364Z,54.06
2018-09-05T21:28:59.373Z,53.59
2018-09-05T21:31:27.428Z,53.61
2018-09-05T21:33:55.716Z,53.80
2018-09-05T21:36:23.884Z,54.13
2018-09-05T21:38:51.910Z,54.30
2018-09-05T21:41:20.088Z,54.08
2018-09-05T21:43:48.120Z,54.48
2018-09-05T21:46:16.142Z,54.91
2018-09-05T21:48:44.191Z,55.26
2018-09-05T21:51:12.267Z,55.25
2018-09-05T21:53:40.413Z,55.03
2018-09-05T21:56:08.517Z,54.40
2018-09-05T21:58:36.594Z,55.17
2018-09-05T22:01:04.856Z,55.47
2018-09-05T22:03:33.008Z,54.73
2018-09-05T22:06:01.020Z,55.36
2018-09-05T22:08:29.125Z,55.21
2018-09-05T22:11:01.340Z,55.54
2018-09-05T22:13:29.636Z,55.03
2018-09-05T22:15:57.668Z,54.96
2018-09-05T22:18:25.747Z,54.87
2018-09-05T22:20:53.840Z,55.00
2018-09-05T22:23:22.184Z,56.15
2018-09-05T22:25:50.208Z,55.91
2018-09-05T22:28:18.245Z,55.45
2018-09-05T22:30:46.268Z,56.12
2018-09-05T22:33:14.280Z,56.62
2018-09-05T22:35:42.303Z,56.13
2018-09-05T22:38:10.311Z,56.00
2018-09-05T22:40:43.888Z,56.45
2018-09-05T22:43:23.428Z,56.33
2018-09-05T22:46:02.919Z,56.99
2018-09-05T22:50:53.904Z,56.66
2018-09-05T22:53:38.635Z,56.88
2018-09-05T22:58:24.181Z,56.91
2018-09-05T23:01:18.314Z,57.48
2018-09-05T23:03:55.489Z,58.06
2018-09-05T23:08:43.357Z,58.26
2018-09-05T23:13:26.771Z,58.54
2018-09-05T23:16:06.652Z,58.91
2018-09-05T23:18:46.159Z,59.12
2018-09-05T23:21:22.340Z,59.46
2018-09-05T23:23:56.444Z,59.07
2018-09-05T23:26:24.836Z,59.70
2018-09-05T23:28:52.999Z,59.03
2018-09-05T23:31:21.240Z,59.33
2018-09-05T23:33:49.569Z,59.63
2018-09-05T23:36:17.731Z,59.56
2018-09-05T23:38:45.828Z,59.30
2018-09-05T23:41:13.964Z,59.51
2018-09-05T23:43:42.028Z,59.56
2018-09-05T23:46:10.052Z,59.38
2018-09-05T23:48:38.327Z,59.67
2018-09-05T23:51:06.724Z,59.19
2018-09-05T23:53:34.970Z,59.86
2018-09-05T23:56:03.207Z,59.66
2018-09-05T23:58:31.220Z,59.42
